Terminal Aerodrome Forecast
Issued by NWS

Home | Current Version | Previous Version | Text Only | Print | Product List | Glossary On
Versions: 1 2 3 4 5 6 7 8 9 10 11 12
000
FTUS45 KREV 201740
TAFMMH
TAF
KMMH 201740Z 2018/2118 11007KT P6SM FEW080 SCT140
     FM202200 20011KT P6SM VCSH SCT050 BKN080
     FM210100 30011G19KT P6SM SCT070 BKN200
     FM210400 30009KT P6SM VCSH SCT030 BKN060
     FM211000 33006KT P6SM -SHRA BKN030 OVC050=

USA.gov is the U.S. government's official web portal to all federal, state and local government web resources and services.